createdAt,value
2022-11-03T00:03:37.702Z,97871.13
2022-11-03T00:08:42.872Z,97868.44
2022-11-03T00:13:46.186Z,97863.59
2022-11-03T00:18:49.473Z,97867.94
2022-11-03T00:23:55.593Z,97865.50
2022-11-03T00:29:01.752Z,97871.72
2022-11-03T00:34:06.381Z,97868.44
2022-11-03T00:39:10.745Z,97866.00
2022-11-03T00:44:14.845Z,97864.38
2022-11-03T00:49:18.469Z,97865.38
2022-11-03T00:54:21.912Z,97866.41
2022-11-03T00:59:27.459Z,97868.78
2022-11-03T01:04:30.857Z,97861.47
2022-11-03T01:09:37.419Z,97860.31
2022-11-03T01:14:44.974Z,97862.47
2022-11-03T01:19:48.879Z,97865.16
2022-11-03T01:24:53.948Z,97874.63
2022-11-03T01:29:57.851Z,97875.72
2022-11-03T01:35:01.398Z,97878.72
2022-11-03T01:40:07.712Z,97878.47
2022-11-03T01:45:11.129Z,97877.41
2022-11-03T01:50:16.750Z,97876.31
2022-11-03T01:55:27.498Z,97875.38
2022-11-03T02:00:30.856Z,97880.31
2022-11-03T02:05:34.452Z,97876.31
2022-11-03T02:10:39.523Z,97875.88
2022-11-03T02:15:45.555Z,97878.88
2022-11-03T02:20:58.007Z,97881.28
2022-11-03T02:26:02.012Z,97886.69
2022-11-03T02:31:16.235Z,97869.69
2022-11-03T02:36:31.089Z,97868.38
2022-11-03T02:41:37.783Z,97881.09
2022-11-03T02:46:47.158Z,97884.66
2022-11-03T02:52:03.340Z,97890.88
2022-11-03T02:57:14.433Z,97891.09
2022-11-03T03:02:24.541Z,97895.47
2022-11-03T03:07:33.616Z,97896.28
2022-11-03T03:12:41.065Z,97888.97
2022-11-03T03:17:52.674Z,97900.03
2022-11-03T03:23:18.345Z,97895.97
2022-11-03T03:28:35.132Z,97898.94
2022-11-03T03:33:43.557Z,97907.03
2022-11-03T03:38:59.041Z,97904.06
2022-11-03T03:44:06.497Z,97903.81
2022-11-03T03:49:09.974Z,97905.69
2022-11-03T03:54:13.297Z,97897.31
2022-11-03T03:59:17.089Z,97903.78
2022-11-03T04:04:20.434Z,97910.56
2022-11-03T04:09:23.837Z,97911.38
2022-11-03T04:14:27.157Z,97915.41
2022-11-03T04:19:30.474Z,97917.84
2022-11-03T04:24:34.095Z,97915.44
2022-11-03T04:29:37.632Z,97922.53
2022-11-03T04:34:42.179Z,97931.56
2022-11-03T04:39:45.987Z,97935.66
2022-11-03T04:44:50.372Z,97942.22
2022-11-03T04:49:55.957Z,97948.75
2022-11-03T04:55:00.117Z,97962.69
2022-11-03T05:00:04.291Z,97954.34
2022-11-03T05:05:26.890Z,97967.13
2022-11-03T05:10:30.020Z,97965.88
2022-11-03T05:15:42.389Z,97967.53
2022-11-03T05:20:55.655Z,97971.16
2022-11-03T05:25:59.595Z,97972.31
2022-11-03T05:31:15.373Z,97972.44
2022-11-03T05:36:24.593Z,97972.34
2022-11-03T05:41:30.595Z,97978.50
2022-11-03T05:46:35.448Z,97972.03
2022-11-03T05:51:41.430Z,97982.41
2022-11-03T05:56:45.995Z,97979.44
2022-11-03T06:01:49.930Z,97996.34
2022-11-03T06:06:55.946Z,97992.06
2022-11-03T06:12:02.697Z,97990.16
2022-11-03T06:22:41.633Z,98001.97
2022-11-03T06:27:47.595Z,98003.66
2022-11-03T06:32:51.691Z,98001.69
2022-11-03T06:37:57.784Z,97999.72
2022-11-03T06:43:26.384Z,98000.31
2022-11-03T06:48:33.692Z,97993.44
2022-11-03T06:53:37.008Z,97995.78
2022-11-03T06:58:41.311Z,97995.06
2022-11-03T07:03:44.844Z,98000.56
2022-11-03T07:08:51.889Z,97998.41
2022-11-03T07:14:03.048Z,98000.50
2022-11-03T07:19:23.884Z,98004.63
2022-11-03T07:24:46.254Z,98013.03
2022-11-03T07:29:51.310Z,98006.31
2022-11-03T07:35:07.380Z,98009.69
2022-11-03T07:40:18.450Z,98012.81
2022-11-03T07:45:37.028Z,98020.22
2022-11-03T07:50:40.591Z,98028.97
2022-11-03T07:55:46.415Z,98012.44
2022-11-03T08:00:50.787Z,98011.13
2022-11-03T08:05:56.422Z,98008.09
2022-11-03T08:10:59.744Z,98007.56
2022-11-03T08:16:03.396Z,98008.91
2022-11-03T08:21:06.798Z,97994.94
2022-11-03T08:26:16.083Z,97992.53
2022-11-03T08:31:22.927Z,97990.63
2022-11-03T08:36:26.266Z,97990.19
2022-11-03T08:41:30.381Z,97989.34
2022-11-03T08:46:35.899Z,97982.75
2022-11-03T08:51:44.091Z,97976.63
2022-11-03T08:56:47.953Z,97980.72
2022-11-03T09:01:51.502Z,97964.78
2022-11-03T09:06:57.127Z,97962.19
2022-11-03T09:12:00.898Z,97962.44
2022-11-03T09:17:04.460Z,97946.91
2022-11-03T09:22:07.686Z,97939.66
2022-11-03T09:27:11.417Z,97935.59
2022-11-03T09:32:17.646Z,97937.53
2022-11-03T09:37:28.164Z,97943.63
2022-11-03T09:42:32.971Z,97926.75
2022-11-03T09:47:42.429Z,97920.94
2022-11-03T09:52:51.300Z,97919.53
2022-11-03T09:58:01.363Z,97911.13
2022-11-03T10:03:05.313Z,97897.25
2022-11-03T10:08:24.570Z,97899.59
2022-11-03T10:13:36.781Z,97892.38
2022-11-03T10:18:40.136Z,97889.56
2022-11-03T10:23:44.064Z,97889.06
2022-11-03T10:29:06.886Z,97884.06
2022-11-03T10:34:36.237Z,97879.34
2022-11-03T10:39:39.653Z,97874.88
2022-11-03T10:44:42.929Z,97864.91
2022-11-03T10:49:46.169Z,97868.59
2022-11-03T10:54:53.189Z,97850.03
2022-11-03T10:59:56.597Z,97862.25
2022-11-03T11:05:02.373Z,97861.56
2022-11-03T11:10:16.852Z,97851.81
2022-11-03T11:15:43.200Z,97847.00
2022-11-03T11:20:46.668Z,97851.13
2022-11-03T11:26:13.786Z,97844.28
2022-11-03T11:31:23.155Z,97851.00
2022-11-03T11:36:26.822Z,97835.81
2022-11-03T11:42:07.423Z,97839.66
2022-11-03T11:47:26.340Z,97848.22
2022-11-03T11:52:31.201Z,97845.34
2022-11-03T11:57:35.663Z,97836.63
2022-11-03T12:02:39.087Z,97841.91
2022-11-03T12:07:42.667Z,97843.19
2022-11-03T12:12:46.684Z,97831.47
2022-11-03T12:17:50.157Z,97839.88
2022-11-03T12:22:53.726Z,97843.94
2022-11-03T12:27:57.655Z,97850.84
2022-11-03T12:33:00.916Z,97849.84
2022-11-03T12:38:04.418Z,97852.25
2022-11-03T12:43:07.781Z,97848.25
2022-11-03T12:48:11.337Z,97850.50
2022-11-03T12:53:14.686Z,97852.72
2022-11-03T12:58:17.794Z,97862.72
2022-11-03T13:03:20.956Z,97860.16
2022-11-03T13:08:24.568Z,97863.72
2022-11-03T13:13:28.552Z,97869.69
2022-11-03T13:18:32.373Z,97875.97
2022-11-03T13:23:39.295Z,97870.78
2022-11-03T13:28:42.765Z,97882.00
2022-11-03T13:33:46.133Z,97883.72
2022-11-03T13:38:49.252Z,97877.47
2022-11-03T13:43:52.531Z,97876.38
2022-11-03T13:59:42.725Z,97882.44
2022-11-03T14:04:46.056Z,97877.81
2022-11-03T14:09:49.320Z,97896.84
2022-11-03T14:14:52.898Z,97894.72
2022-11-03T14:20:02.541Z,97892.34
2022-11-03T14:25:08.844Z,97894.84
2022-11-03T14:30:12.946Z,97895.16
2022-11-03T14:35:18.013Z,97896.56
2022-11-03T14:40:21.451Z,97902.00
2022-11-03T14:45:24.911Z,97905.25
2022-11-03T14:50:28.470Z,97908.28
2022-11-03T14:55:31.899Z,97912.91
2022-11-03T15:00:40.386Z,97905.31
2022-11-03T15:05:43.691Z,97916.72
2022-11-03T15:10:47.269Z,97918.34
2022-11-03T15:15:50.570Z,97924.28
2022-11-03T15:20:55.981Z,97921.88
2022-11-03T15:25:59.928Z,97933.78
2022-11-03T15:31:03.623Z,97931.06
2022-11-03T15:36:08.657Z,97932.94
2022-11-03T15:41:15.172Z,97947.31
2022-11-03T15:46:20.331Z,97935.91
2022-11-03T15:51:24.517Z,97941.88
2022-11-03T15:56:28.236Z,97949.19
2022-11-03T16:01:32.201Z,97944.56
2022-11-03T16:07:01.744Z,97952.69
2022-11-03T16:11:59.105Z,97956.75
2022-11-03T16:17:03.249Z,97957.28
2022-11-03T16:22:06.808Z,97956.75
2022-11-03T16:27:10.736Z,97957.03
2022-11-03T16:32:17.167Z,97957.88
2022-11-03T16:37:21.016Z,97964.63
2022-11-03T16:42:24.649Z,97963.78
2022-11-03T16:47:28.002Z,97952.66
2022-11-03T16:52:31.466Z,97945.06
2022-11-03T16:57:35.172Z,97952.34
2022-11-03T17:02:39.016Z,97940.41
2022-11-03T17:07:42.410Z,97934.69
2022-11-03T17:12:45.787Z,97936.03
2022-11-03T17:17:49.175Z,97929.50
2022-11-03T17:22:52.640Z,97940.06
2022-11-03T17:27:59.950Z,97931.66
2022-11-03T17:33:08.109Z,97932.19
2022-11-03T17:38:17.556Z,97924.84
2022-11-03T17:43:25.969Z,97927.25
2022-11-03T17:48:29.376Z,97924.81
2022-11-03T17:53:34.142Z,97930.75
2022-11-03T17:58:43.207Z,97926.66
2022-11-03T18:03:49.748Z,97931.81
2022-11-03T18:08:53.898Z,97941.81
2022-11-03T18:13:57.398Z,97939.13
2022-11-03T18:19:00.926Z,97944.00
2022-11-03T18:24:11.621Z,97945.63
2022-11-03T18:29:14.868Z,97944.56
2022-11-03T18:34:26.300Z,97945.88
2022-11-03T18:39:29.449Z,97947.47
2022-11-03T18:44:32.531Z,97956.19
2022-11-03T18:49:36.327Z,97953.47
2022-11-03T18:54:44.513Z,97958.06
2022-11-03T18:59:48.602Z,97959.94
2022-11-03T19:04:52.382Z,97956.38
2022-11-03T19:09:55.866Z,97950.94
2022-11-03T19:15:05.392Z,97955.53
2022-11-03T19:20:15.169Z,97955.25
2022-11-03T19:25:18.345Z,97956.34
2022-11-03T19:30:21.576Z,97957.97
2022-11-03T19:35:35.314Z,97957.69
2022-11-03T19:40:39.579Z,97959.81
2022-11-03T19:45:43.062Z,97960.63
2022-11-03T19:50:46.924Z,97963.34
2022-11-03T19:55:50.327Z,97960.63
2022-11-03T20:00:55.151Z,97960.06
2022-11-03T20:06:00.224Z,97966.28
2022-11-03T20:11:05.351Z,97951.66
2022-11-03T20:16:16.551Z,97951.06
2022-11-03T20:21:20.567Z,97950.81
2022-11-03T20:26:25.841Z,97950.81
2022-11-03T20:31:29.517Z,97943.47
2022-11-03T20:36:33.499Z,97944.50
2022-11-03T20:41:36.738Z,97938.53
2022-11-03T20:46:40.663Z,97943.94
2022-11-03T20:51:46.359Z,97936.09
2022-11-03T20:56:49.548Z,97939.31
2022-11-03T21:01:53.471Z,97933.34
2022-11-03T21:06:57.807Z,97927.34
2022-11-03T21:12:01.004Z,97924.38
2022-11-03T21:17:04.104Z,97921.34
2022-11-03T21:22:54.310Z,97926.78
2022-11-03T21:27:58.353Z,97926.22
2022-11-03T21:33:01.693Z,97921.88
2022-11-03T21:38:05.672Z,97920.50
2022-11-03T21:43:11.385Z,97926.19
2022-11-03T21:48:15.145Z,97912.38
2022-11-03T21:53:18.597Z,97906.16
2022-11-03T21:58:21.944Z,97917.47
2022-11-03T22:03:25.154Z,97908.00
2022-11-03T22:08:28.527Z,97914.44
2022-11-03T22:13:31.812Z,97909.53
2022-11-03T22:18:35.159Z,97914.94
2022-11-03T22:23:38.417Z,97915.22
2022-11-03T22:28:41.817Z,97912.50
2022-11-03T22:33:45.452Z,97912.78
2022-11-03T22:38:49.099Z,97907.88
2022-11-03T22:43:52.854Z,97922.19
2022-11-03T22:48:56.399Z,97908.13
2022-11-03T22:54:00.189Z,97901.34
2022-11-03T22:59:04.404Z,97908.91
2022-11-03T23:04:08.115Z,97908.59
2022-11-03T23:09:11.850Z,97903.69
2022-11-03T23:14:15.854Z,97906.09
2022-11-03T23:19:19.087Z,97892.56
2022-11-03T23:24:23.528Z,97895.50
2022-11-03T23:29:28.560Z,97893.03
2022-11-03T23:34:39.666Z,97897.09
2022-11-03T23:39:43.091Z,97894.38
2022-11-03T23:44:47.413Z,97893.81
2022-11-03T23:49:51.314Z,97885.16
2022-11-03T23:54:55.240Z,97885.41
2022-11-03T23:59:58.784Z,97881.31
